sensor_id;sensor_type;location;lat;lon;timestamp;P1;durP1;ratioP1;P2;durP2;ratioP2
40997;SDS011;26740;45.944;12.480;2022-10-13T00:00:40;13.43;;;6.60;;
40997;SDS011;26740;45.944;12.480;2022-10-13T00:03:06;10.10;;;6.65;;
40997;SDS011;26740;45.944;12.480;2022-10-13T00:05:33;8.32;;;6.07;;
40997;SDS011;26740;45.944;12.480;2022-10-13T00:07:59;13.95;;;6.07;;
40997;SDS011;26740;45.944;12.480;2022-10-13T00:10:25;11.10;;;5.85;;
40997;SDS011;26740;45.944;12.480;2022-10-13T00:12:51;11.07;;;5.57;;
40997;SDS011;26740;45.944;12.480;2022-10-13T00:15:17;8.25;;;5.45;;
40997;SDS011;26740;45.944;12.480;2022-10-13T00:17:43;12.60;;;6.25;;
40997;SDS011;26740;45.944;12.480;2022-10-13T00:20:09;12.55;;;6.22;;
40997;SDS011;26740;45.944;12.480;2022-10-13T00:22:35;14.70;;;6.38;;
40997;SDS011;26740;45.944;12.480;2022-10-13T00:25:02;8.55;;;6.38;;
40997;SDS011;26740;45.944;12.480;2022-10-13T00:27:28;11.45;;;6.10;;
40997;SDS011;26740;45.944;12.480;2022-10-13T00:29:54;11.48;;;6.07;;
40997;SDS011;26740;45.944;12.480;2022-10-13T00:32:19;12.35;;;6.43;;
40997;SDS011;26740;45.944;12.480;2022-10-13T00:34:45;8.18;;;6.03;;
40997;SDS011;26740;45.944;12.480;2022-10-13T00:37:11;12.25;;;6.47;;
40997;SDS011;26740;45.944;12.480;2022-10-13T00:39:36;9.95;;;5.78;;
40997;SDS011;26740;45.944;12.480;2022-10-13T00:42:02;11.82;;;6.55;;
40997;SDS011;26740;45.944;12.480;2022-10-13T00:47:36;9.98;;;5.47;;
40997;SDS011;26740;45.944;12.480;2022-10-13T00:50:06;11.73;;;6.75;;
40997;SDS011;26740;45.944;12.480;2022-10-13T00:55:03;8.35;;;5.95;;
40997;SDS011;26740;45.944;12.480;2022-10-13T00:57:31;14.57;;;6.95;;
40997;SDS011;26740;45.944;12.480;2022-10-13T00:59:58;9.98;;;6.57;;
40997;SDS011;26740;45.944;12.480;2022-10-13T01:02:26;13.43;;;5.53;;
40997;SDS011;26740;45.944;12.480;2022-10-13T01:04:56;8.05;;;5.28;;
40997;SDS011;26740;45.944;12.480;2022-10-13T01:07:23;9.85;;;6.45;;
40997;SDS011;26740;45.944;12.480;2022-10-13T01:09:49;12.05;;;6.90;;
40997;SDS011;26740;45.944;12.480;2022-10-13T01:17:42;11.70;;;5.68;;
40997;SDS011;26740;45.944;12.480;2022-10-13T01:23:01;7.97;;;5.90;;
40997;SDS011;26740;45.944;12.480;2022-10-13T01:31:26;11.30;;;6.18;;
40997;SDS011;26740;45.944;12.480;2022-10-13T01:34:09;9.60;;;6.43;;
40997;SDS011;26740;45.944;12.480;2022-10-13T01:39:26;16.58;;;7.13;;
40997;SDS011;26740;45.944;12.480;2022-10-13T01:42:05;11.18;;;6.28;;
40997;SDS011;26740;45.944;12.480;2022-10-13T01:44:44;10.85;;;5.93;;
40997;SDS011;26740;45.944;12.480;2022-10-13T01:47:14;9.00;;;6.47;;
40997;SDS011;26740;45.944;12.480;2022-10-13T01:49:41;11.73;;;6.97;;
40997;SDS011;26740;45.944;12.480;2022-10-13T01:52:11;10.25;;;5.95;;
40997;SDS011;26740;45.944;12.480;2022-10-13T01:54:39;16.27;;;7.05;;
40997;SDS011;26740;45.944;12.480;2022-10-13T01:57:24;9.93;;;5.68;;
40997;SDS011;26740;45.944;12.480;2022-10-13T02:00:03;10.45;;;6.43;;
40997;SDS011;26740;45.944;12.480;2022-10-13T02:02:42;11.75;;;5.88;;
40997;SDS011;26740;45.944;12.480;2022-10-13T02:07:48;12.18;;;6.53;;
40997;SDS011;26740;45.944;12.480;2022-10-13T02:10:44;11.48;;;6.45;;
40997;SDS011;26740;45.944;12.480;2022-10-13T02:13:20;8.43;;;5.82;;
40997;SDS011;26740;45.944;12.480;2022-10-13T02:15:52;11.55;;;6.05;;
40997;SDS011;26740;45.944;12.480;2022-10-13T02:18:22;9.43;;;5.73;;
40997;SDS011;26740;45.944;12.480;2022-10-13T02:20:53;8.13;;;5.75;;
40997;SDS011;26740;45.944;12.480;2022-10-13T02:23:19;8.25;;;6.03;;
40997;SDS011;26740;45.944;12.480;2022-10-13T02:25:46;15.77;;;6.50;;
40997;SDS011;26740;45.944;12.480;2022-10-13T02:28:13;12.45;;;6.63;;
40997;SDS011;26740;45.944;12.480;2022-10-13T02:30:40;11.80;;;6.13;;
40997;SDS011;26740;45.944;12.480;2022-10-13T02:33:06;18.90;;;6.90;;
40997;SDS011;26740;45.944;12.480;2022-10-13T02:35:33;13.25;;;7.68;;
40997;SDS011;26740;45.944;12.480;2022-10-13T02:37:59;12.95;;;7.60;;
40997;SDS011;26740;45.944;12.480;2022-10-13T02:40:25;14.32;;;7.25;;
40997;SDS011;26740;45.944;12.480;2022-10-13T02:42:51;15.70;;;7.18;;
40997;SDS011;26740;45.944;12.480;2022-10-13T02:45:18;15.85;;;6.68;;
40997;SDS011;26740;45.944;12.480;2022-10-13T02:47:44;12.80;;;6.55;;
40997;SDS011;26740;45.944;12.480;2022-10-13T02:50:10;14.32;;;6.85;;
40997;SDS011;26740;45.944;12.480;2022-10-13T02:52:36;9.18;;;6.70;;
40997;SDS011;26740;45.944;12.480;2022-10-13T02:55:02;11.20;;;6.22;;
40997;SDS011;26740;45.944;12.480;2022-10-13T02:57:29;11.30;;;6.40;;
40997;SDS011;26740;45.944;12.480;2022-10-13T02:59:55;12.40;;;6.40;;
40997;SDS011;26740;45.944;12.480;2022-10-13T03:02:21;16.98;;;7.10;;
40997;SDS011;26740;45.944;12.480;2022-10-13T03:04:47;13.55;;;6.68;;
40997;SDS011;26740;45.944;12.480;2022-10-13T03:07:13;9.10;;;6.32;;
40997;SDS011;26740;45.944;12.480;2022-10-13T03:09:39;10.73;;;6.38;;
40997;SDS011;26740;45.944;12.480;2022-10-13T03:12:05;9.55;;;5.68;;
40997;SDS011;26740;45.944;12.480;2022-10-13T03:14:31;13.48;;;6.32;;
40997;SDS011;26740;45.944;12.480;2022-10-13T03:16:56;10.35;;;6.13;;
40997;SDS011;26740;45.944;12.480;2022-10-13T03:19:22;8.98;;;5.38;;
40997;SDS011;26740;45.944;12.480;2022-10-13T03:21:48;10.60;;;5.50;;
40997;SDS011;26740;45.944;12.480;2022-10-13T03:24:14;7.28;;;5.97;;
40997;SDS011;26740;45.944;12.480;2022-10-13T03:26:40;10.90;;;5.43;;
40997;SDS011;26740;45.944;12.480;2022-10-13T03:29:05;9.40;;;6.32;;
40997;SDS011;26740;45.944;12.480;2022-10-13T03:31:31;12.38;;;6.10;;
40997;SDS011;26740;45.944;12.480;2022-10-13T03:33:57;12.73;;;5.88;;
40997;SDS011;26740;45.944;12.480;2022-10-13T03:36:23;8.93;;;5.72;;
40997;SDS011;26740;45.944;12.480;2022-10-13T03:38:48;15.50;;;6.63;;
40997;SDS011;26740;45.944;12.480;2022-10-13T03:41:15;9.00;;;6.18;;
40997;SDS011;26740;45.944;12.480;2022-10-13T03:43:43;12.88;;;5.90;;
40997;SDS011;26740;45.944;12.480;2022-10-13T03:46:10;10.15;;;6.28;;
40997;SDS011;26740;45.944;12.480;2022-10-13T03:48:37;8.27;;;5.57;;
40997;SDS011;26740;45.944;12.480;2022-10-13T03:51:06;11.52;;;6.68;;
40997;SDS011;26740;45.944;12.480;2022-10-13T03:53:39;10.65;;;5.68;;
40997;SDS011;26740;45.944;12.480;2022-10-13T03:56:05;11.40;;;6.43;;
40997;SDS011;26740;45.944;12.480;2022-10-13T03:58:32;14.85;;;6.53;;
40997;SDS011;26740;45.944;12.480;2022-10-13T04:01:02;8.77;;;5.30;;
40997;SDS011;26740;45.944;12.480;2022-10-13T04:03:29;13.05;;;6.38;;
40997;SDS011;26740;45.944;12.480;2022-10-13T04:05:58;18.80;;;8.60;;
40997;SDS011;26740;45.944;12.480;2022-10-13T04:08:26;9.30;;;5.95;;
40997;SDS011;26740;45.944;12.480;2022-10-13T04:10:59;12.18;;;6.07;;
40997;SDS011;26740;45.944;12.480;2022-10-13T04:13:26;9.55;;;5.82;;
40997;SDS011;26740;45.944;12.480;2022-10-13T04:15:51;6.70;;;5.18;;
40997;SDS011;26740;45.944;12.480;2022-10-13T04:18:17;9.50;;;5.72;;
40997;SDS011;26740;45.944;12.480;2022-10-13T04:20:43;12.00;;;6.38;;
40997;SDS011;26740;45.944;12.480;2022-10-13T04:23:08;10.43;;;6.03;;
40997;SDS011;26740;45.944;12.480;2022-10-13T04:25:34;8.70;;;5.85;;
40997;SDS011;26740;45.944;12.480;2022-10-13T04:28:02;18.02;;;6.57;;
40997;SDS011;26740;45.944;12.480;2022-10-13T04:30:29;16.02;;;6.50;;
40997;SDS011;26740;45.944;12.480;2022-10-13T04:32:54;17.92;;;7.28;;
40997;SDS011;26740;45.944;12.480;2022-10-13T04:35:20;8.65;;;5.82;;
40997;SDS011;26740;45.944;12.480;2022-10-13T04:37:45;21.67;;;6.90;;
40997;SDS011;26740;45.944;12.480;2022-10-13T04:40:11;12.57;;;5.43;;
40997;SDS011;26740;45.944;12.480;2022-10-13T04:42:37;10.98;;;6.43;;
40997;SDS011;26740;45.944;12.480;2022-10-13T04:45:03;13.52;;;6.00;;
40997;SDS011;26740;45.944;12.480;2022-10-13T04:47:30;14.52;;;6.90;;
40997;SDS011;26740;45.944;12.480;2022-10-13T04:49:56;11.70;;;7.38;;
40997;SDS011;26740;45.944;12.480;2022-10-13T04:52:22;15.38;;;6.60;;
40997;SDS011;26740;45.944;12.480;2022-10-13T04:54:48;12.10;;;6.45;;
40997;SDS011;26740;45.944;12.480;2022-10-13T04:57:13;13.15;;;6.22;;
40997;SDS011;26740;45.944;12.480;2022-10-13T04:59:39;11.23;;;6.38;;
40997;SDS011;26740;45.944;12.480;2022-10-13T05:02:05;15.40;;;7.20;;
40997;SDS011;26740;45.944;12.480;2022-10-13T05:04:30;11.52;;;6.22;;
40997;SDS011;26740;45.944;12.480;2022-10-13T05:06:56;10.48;;;6.45;;
40997;SDS011;26740;45.944;12.480;2022-10-13T05:09:21;11.70;;;6.25;;
40997;SDS011;26740;45.944;12.480;2022-10-13T05:11:47;12.65;;;7.20;;
40997;SDS011;26740;45.944;12.480;2022-10-13T05:14:13;12.13;;;6.60;;
40997;SDS011;26740;45.944;12.480;2022-10-13T05:16:39;13.45;;;6.10;;
40997;SDS011;26740;45.944;12.480;2022-10-13T05:19:04;12.75;;;6.57;;
40997;SDS011;26740;45.944;12.480;2022-10-13T05:21:30;14.75;;;6.45;;
40997;SDS011;26740;45.944;12.480;2022-10-13T05:23:56;13.60;;;6.50;;
40997;SDS011;26740;45.944;12.480;2022-10-13T05:26:23;17.42;;;7.95;;
40997;SDS011;26740;45.944;12.480;2022-10-13T05:28:55;20.13;;;7.18;;
40997;SDS011;26740;45.944;12.480;2022-10-13T05:31:22;10.48;;;6.88;;
40997;SDS011;26740;45.944;12.480;2022-10-13T05:33:49;11.10;;;6.30;;
40997;SDS011;26740;45.944;12.480;2022-10-13T05:36:26;8.15;;;5.85;;
40997;SDS011;26740;45.944;12.480;2022-10-13T05:38:55;12.10;;;7.00;;
40997;SDS011;26740;45.944;12.480;2022-10-13T05:41:23;14.52;;;7.78;;
40997;SDS011;26740;45.944;12.480;2022-10-13T05:43:50;14.90;;;8.80;;
40997;SDS011;26740;45.944;12.480;2022-10-13T05:46:21;12.52;;;6.25;;
40997;SDS011;26740;45.944;12.480;2022-10-13T05:48:47;9.52;;;6.60;;
40997;SDS011;26740;45.944;12.480;2022-10-13T05:51:18;12.15;;;6.95;;
40997;SDS011;26740;45.944;12.480;2022-10-13T05:53:51;13.07;;;7.72;;
40997;SDS011;26740;45.944;12.480;2022-10-13T05:56:26;13.93;;;7.40;;
40997;SDS011;26740;45.944;12.480;2022-10-13T05:59:00;16.45;;;6.63;;
40997;SDS011;26740;45.944;12.480;2022-10-13T06:01:30;14.85;;;6.78;;
40997;SDS011;26740;45.944;12.480;2022-10-13T06:04:00;14.68;;;6.60;;
40997;SDS011;26740;45.944;12.480;2022-10-13T06:06:30;15.52;;;6.88;;
40997;SDS011;26740;45.944;12.480;2022-10-13T06:08:56;9.55;;;6.55;;
40997;SDS011;26740;45.944;12.480;2022-10-13T06:11:22;15.00;;;6.53;;
40997;SDS011;26740;45.944;12.480;2022-10-13T06:13:47;13.38;;;7.03;;
40997;SDS011;26740;45.944;12.480;2022-10-13T06:16:13;14.35;;;7.75;;
40997;SDS011;26740;45.944;12.480;2022-10-13T06:18:38;13.50;;;7.38;;
40997;SDS011;26740;45.944;12.480;2022-10-13T06:21:04;14.90;;;8.00;;
40997;SDS011;26740;45.944;12.480;2022-10-13T06:23:30;18.35;;;9.48;;
40997;SDS011;26740;45.944;12.480;2022-10-13T06:25:55;16.80;;;9.32;;
40997;SDS011;26740;45.944;12.480;2022-10-13T06:28:21;15.50;;;9.73;;
40997;SDS011;26740;45.944;12.480;2022-10-13T06:30:47;12.02;;;7.80;;
40997;SDS011;26740;45.944;12.480;2022-10-13T06:33:19;17.73;;;7.78;;
40997;SDS011;26740;45.944;12.480;2022-10-13T06:35:46;15.00;;;8.02;;
40997;SDS011;26740;45.944;12.480;2022-10-13T06:38:12;13.55;;;6.80;;
40997;SDS011;26740;45.944;12.480;2022-10-13T06:40:37;16.20;;;7.88;;
40997;SDS011;26740;45.944;12.480;2022-10-13T06:43:03;14.88;;;7.30;;
40997;SDS011;26740;45.944;12.480;2022-10-13T06:45:29;17.75;;;8.55;;
40997;SDS011;26740;45.944;12.480;2022-10-13T06:47:54;12.95;;;7.35;;
40997;SDS011;26740;45.944;12.480;2022-10-13T06:50:20;16.33;;;8.25;;
40997;SDS011;26740;45.944;12.480;2022-10-13T06:52:47;11.88;;;7.60;;
40997;SDS011;26740;45.944;12.480;2022-10-13T06:55:12;15.32;;;8.20;;
40997;SDS011;26740;45.944;12.480;2022-10-13T06:57:38;9.63;;;7.15;;
40997;SDS011;26740;45.944;12.480;2022-10-13T07:00:04;14.55;;;7.80;;
40997;SDS011;26740;45.944;12.480;2022-10-13T07:02:31;15.27;;;7.88;;
40997;SDS011;26740;45.944;12.480;2022-10-13T07:04:57;10.52;;;7.32;;
40997;SDS011;26740;45.944;12.480;2022-10-13T07:07:22;10.05;;;6.75;;
40997;SDS011;26740;45.944;12.480;2022-10-13T07:09:48;10.05;;;6.88;;
40997;SDS011;26740;45.944;12.480;2022-10-13T07:12:14;15.20;;;7.00;;
40997;SDS011;26740;45.944;12.480;2022-10-13T07:14:40;19.27;;;6.85;;
40997;SDS011;26740;45.944;12.480;2022-10-13T07:17:06;8.38;;;6.15;;
40997;SDS011;26740;45.944;12.480;2022-10-13T07:19:31;10.50;;;6.85;;
40997;SDS011;26740;45.944;12.480;2022-10-13T07:21:57;8.00;;;6.35;;
40997;SDS011;26740;45.944;12.480;2022-10-13T07:24:23;10.13;;;6.22;;
40997;SDS011;26740;45.944;12.480;2022-10-13T07:26:49;8.60;;;5.60;;
40997;SDS011;26740;45.944;12.480;2022-10-13T07:29:14;11.00;;;5.65;;
40997;SDS011;26740;45.944;12.480;2022-10-13T07:31:44;8.57;;;5.68;;
40997;SDS011;26740;45.944;12.480;2022-10-13T07:36:36;18.77;;;6.72;;
40997;SDS011;26740;45.944;12.480;2022-10-13T07:39:06;14.40;;;6.10;;
40997;SDS011;26740;45.944;12.480;2022-10-13T07:41:33;9.77;;;5.28;;
40997;SDS011;26740;45.944;12.480;2022-10-13T07:43:59;7.80;;;5.28;;
40997;SDS011;26740;45.944;12.480;2022-10-13T07:46:25;9.10;;;6.18;;
40997;SDS011;26740;45.944;12.480;2022-10-13T07:48:51;10.90;;;5.20;;
40997;SDS011;26740;45.944;12.480;2022-10-13T07:51:18;15.43;;;5.85;;
40997;SDS011;26740;45.944;12.480;2022-10-13T07:53:45;8.85;;;5.65;;
40997;SDS011;26740;45.944;12.480;2022-10-13T07:56:12;8.52;;;5.57;;
40997;SDS011;26740;45.944;12.480;2022-10-13T07:58:42;6.63;;;5.00;;
40997;SDS011;26740;45.944;12.480;2022-10-13T08:01:10;17.17;;;5.05;;
40997;SDS011;26740;45.944;12.480;2022-10-13T08:03:37;10.30;;;4.93;;
40997;SDS011;26740;45.944;12.480;2022-10-13T08:06:04;7.97;;;5.47;;
40997;SDS011;26740;45.944;12.480;2022-10-13T08:08:30;9.98;;;4.68;;
40997;SDS011;26740;45.944;12.480;2022-10-13T08:11:00;9.40;;;4.93;;
40997;SDS011;26740;45.944;12.480;2022-10-13T08:15:51;8.70;;;4.60;;
40997;SDS011;26740;45.944;12.480;2022-10-13T08:18:17;9.48;;;5.00;;
40997;SDS011;26740;45.944;12.480;2022-10-13T08:20:43;9.43;;;5.05;;
40997;SDS011;26740;45.944;12.480;2022-10-13T08:23:10;8.52;;;4.78;;
40997;SDS011;26740;45.944;12.480;2022-10-13T08:25:38;12.70;;;5.15;;
40997;SDS011;26740;45.944;12.480;2022-10-13T08:30:44;6.22;;;3.85;;
40997;SDS011;26740;45.944;12.480;2022-10-13T08:33:10;8.23;;;5.43;;
40997;SDS011;26740;45.944;12.480;2022-10-13T08:35:36;11.48;;;4.80;;
40997;SDS011;26740;45.944;12.480;2022-10-13T08:38:02;6.60;;;4.25;;
40997;SDS011;26740;45.944;12.480;2022-10-13T08:40:28;7.38;;;4.55;;
40997;SDS011;26740;45.944;12.480;2022-10-13T08:42:53;7.10;;;5.03;;
40997;SDS011;26740;45.944;12.480;2022-10-13T08:45:24;10.10;;;4.88;;
40997;SDS011;26740;45.944;12.480;2022-10-13T08:47:59;9.10;;;4.03;;
40997;SDS011;26740;45.944;12.480;2022-10-13T08:50:29;12.73;;;5.90;;
40997;SDS011;26740;45.944;12.480;2022-10-13T08:53:10;6.32;;;5.00;;
40997;SDS011;26740;45.944;12.480;2022-10-13T08:55:42;6.03;;;4.43;;
40997;SDS011;26740;45.944;12.480;2022-10-13T09:03:42;7.13;;;4.15;;
40997;SDS011;26740;45.944;12.480;2022-10-13T09:08:47;7.65;;;4.47;;
40997;SDS011;26740;45.944;12.480;2022-10-13T09:11:18;8.80;;;4.20;;
40997;SDS011;26740;45.944;12.480;2022-10-13T09:13:44;12.63;;;4.50;;
40997;SDS011;26740;45.944;12.480;2022-10-13T09:16:10;6.35;;;3.92;;
40997;SDS011;26740;45.944;12.480;2022-10-13T09:18:36;6.45;;;5.05;;
40997;SDS011;26740;45.944;12.480;2022-10-13T09:23:35;8.77;;;4.18;;
40997;SDS011;26740;45.944;12.480;2022-10-13T09:26:05;10.90;;;5.18;;
40997;SDS011;26740;45.944;12.480;2022-10-13T09:28:33;10.60;;;5.97;;
40997;SDS011;26740;45.944;12.480;2022-10-13T09:31:01;6.85;;;5.18;;
40997;SDS011;26740;45.944;12.480;2022-10-13T09:33:36;5.57;;;3.88;;
40997;SDS011;26740;45.944;12.480;2022-10-13T09:38:28;12.25;;;5.00;;
40997;SDS011;26740;45.944;12.480;2022-10-13T09:40:57;9.75;;;4.30;;
40997;SDS011;26740;45.944;12.480;2022-10-13T09:46:39;7.07;;;4.15;;
40997;SDS011;26740;45.944;12.480;2022-10-13T09:49:42;7.50;;;4.95;;
40997;SDS011;26740;45.944;12.480;2022-10-13T09:52:03;9.35;;;4.15;;
40997;SDS011;26740;45.944;12.480;2022-10-13T09:54:35;8.35;;;4.20;;
40997;SDS011;26740;45.944;12.480;2022-10-13T09:57:03;6.95;;;4.43;;
40997;SDS011;26740;45.944;12.480;2022-10-13T10:02:31;8.82;;;4.28;;
40997;SDS011;26740;45.944;12.480;2022-10-13T10:05:13;9.27;;;4.35;;
40997;SDS011;26740;45.944;12.480;2022-10-13T10:07:46;5.53;;;3.50;;
40997;SDS011;26740;45.944;12.480;2022-10-13T10:10:17;11.43;;;4.18;;
40997;SDS011;26740;45.944;12.480;2022-10-13T10:12:52;9.20;;;4.60;;
40997;SDS011;26740;45.944;12.480;2022-10-13T10:15:23;6.28;;;3.95;;
40997;SDS011;26740;45.944;12.480;2022-10-13T10:17:58;13.82;;;3.90;;
40997;SDS011;26740;45.944;12.480;2022-10-13T10:23:42;13.02;;;4.22;;
40997;SDS011;26740;45.944;12.480;2022-10-13T10:26:17;10.48;;;4.25;;
40997;SDS011;26740;45.944;12.480;2022-10-13T10:29:02;9.60;;;4.03;;
40997;SDS011;26740;45.944;12.480;2022-10-13T10:31:51;11.90;;;4.93;;
40997;SDS011;26740;45.944;12.480;2022-10-13T10:40:31;11.00;;;5.65;;
40997;SDS011;26740;45.944;12.480;2022-10-13T10:45:50;12.30;;;6.60;;
40997;SDS011;26740;45.944;12.480;2022-10-13T10:48:22;7.85;;;4.63;;
40997;SDS011;26740;45.944;12.480;2022-10-13T10:53:28;9.15;;;5.55;;
40997;SDS011;26740;45.944;12.480;2022-10-13T10:56:05;17.85;;;5.43;;
40997;SDS011;26740;45.944;12.480;2022-10-13T11:01:39;6.07;;;5.18;;
40997;SDS011;26740;45.944;12.480;2022-10-13T11:06:41;11.57;;;5.50;;
40997;SDS011;26740;45.944;12.480;2022-10-13T11:09:08;6.57;;;4.95;;
40997;SDS011;26740;45.944;12.480;2022-10-13T11:11:36;8.57;;;5.18;;
40997;SDS011;26740;45.944;12.480;2022-10-13T11:16:33;7.22;;;4.75;;
40997;SDS011;26740;45.944;12.480;2022-10-13T11:19:30;12.68;;;5.95;;
40997;SDS011;26740;45.944;12.480;2022-10-13T11:34:58;7.35;;;4.93;;
40997;SDS011;26740;45.944;12.480;2022-10-13T11:46:23;10.87;;;5.63;;
40997;SDS011;26740;45.944;12.480;2022-10-13T11:49:30;7.63;;;5.22;;
40997;SDS011;26740;45.944;12.480;2022-10-13T11:54:47;10.02;;;5.75;;
40997;SDS011;26740;45.944;12.480;2022-10-13T11:57:19;11.68;;;5.78;;
40997;SDS011;26740;45.944;12.480;2022-10-13T11:59:48;9.53;;;6.00;;
40997;SDS011;26740;45.944;12.480;2022-10-13T12:02:19;12.15;;;5.10;;
40997;SDS011;26740;45.944;12.480;2022-10-13T12:07:30;8.00;;;5.47;;
40997;SDS011;26740;45.944;12.480;2022-10-13T12:10:03;12.90;;;6.30;;
40997;SDS011;26740;45.944;12.480;2022-10-13T12:12:32;8.27;;;5.30;;
40997;SDS011;26740;45.944;12.480;2022-10-13T12:14:58;8.63;;;5.97;;
40997;SDS011;26740;45.944;12.480;2022-10-13T12:17:31;10.02;;;5.97;;
40997;SDS011;26740;45.944;12.480;2022-10-13T12:20:16;7.90;;;6.03;;
40997;SDS011;26740;45.944;12.480;2022-10-13T12:22:47;10.15;;;6.32;;
40997;SDS011;26740;45.944;12.480;2022-10-13T12:25:17;8.13;;;5.20;;
40997;SDS011;26740;45.944;12.480;2022-10-13T12:27:48;9.60;;;6.55;;
40997;SDS011;26740;45.944;12.480;2022-10-13T12:32:52;9.02;;;5.43;;
40997;SDS011;26740;45.944;12.480;2022-10-13T12:35:20;12.55;;;5.68;;
40997;SDS011;26740;45.944;12.480;2022-10-13T12:37:49;9.57;;;5.78;;
40997;SDS011;26740;45.944;12.480;2022-10-13T12:40:16;10.15;;;5.45;;
40997;SDS011;26740;45.944;12.480;2022-10-13T12:42:43;9.85;;;4.72;;
40997;SDS011;26740;45.944;12.480;2022-10-13T12:45:13;7.50;;;3.78;;
40997;SDS011;26740;45.944;12.480;2022-10-13T12:55:56;12.65;;;5.80;;
40997;SDS011;26740;45.944;12.480;2022-10-13T12:58:27;7.70;;;5.22;;
40997;SDS011;26740;45.944;12.480;2022-10-13T13:01:03;8.73;;;5.30;;
40997;SDS011;26740;45.944;12.480;2022-10-13T13:03:32;10.68;;;5.07;;
40997;SDS011;26740;45.944;12.480;2022-10-13T13:08:39;8.02;;;5.13;;
40997;SDS011;26740;45.944;12.480;2022-10-13T13:11:23;12.85;;;5.63;;
40997;SDS011;26740;45.944;12.480;2022-10-13T13:19:57;11.43;;;5.80;;
40997;SDS011;26740;45.944;12.480;2022-10-13T13:22:23;7.78;;;5.47;;
40997;SDS011;26740;45.944;12.480;2022-10-13T13:24:49;10.02;;;5.70;;
40997;SDS011;26740;45.944;12.480;2022-10-13T13:29:52;8.50;;;5.55;;
40997;SDS011;26740;45.944;12.480;2022-10-13T13:32:20;7.97;;;5.57;;
40997;SDS011;26740;45.944;12.480;2022-10-13T13:34:48;11.40;;;6.55;;
40997;SDS011;26740;45.944;12.480;2022-10-13T13:39:51;8.85;;;4.95;;
40997;SDS011;26740;45.944;12.480;2022-10-13T13:42:16;9.48;;;5.18;;
40997;SDS011;26740;45.944;12.480;2022-10-13T13:44:42;14.15;;;4.72;;
40997;SDS011;26740;45.944;12.480;2022-10-13T13:47:13;7.47;;;5.55;;
40997;SDS011;26740;45.944;12.480;2022-10-13T13:49:41;9.57;;;6.05;;
40997;SDS011;26740;45.944;12.480;2022-10-13T13:52:07;12.07;;;6.32;;
40997;SDS011;26740;45.944;12.480;2022-10-13T13:54:32;11.40;;;6.07;;
40997;SDS011;26740;45.944;12.480;2022-10-13T13:56:58;10.32;;;5.85;;
40997;SDS011;26740;45.944;12.480;2022-10-13T13:59:23;9.45;;;5.88;;
40997;SDS011;26740;45.944;12.480;2022-10-13T14:01:49;7.93;;;6.30;;
40997;SDS011;26740;45.944;12.480;2022-10-13T14:04:15;8.82;;;4.70;;
40997;SDS011;26740;45.944;12.480;2022-10-13T14:06:40;14.43;;;6.03;;
40997;SDS011;26740;45.944;12.480;2022-10-13T14:09:06;7.65;;;4.90;;
40997;SDS011;26740;45.944;12.480;2022-10-13T14:11:31;8.05;;;5.15;;
40997;SDS011;26740;45.944;12.480;2022-10-13T14:13:57;8.05;;;5.70;;
40997;SDS011;26740;45.944;12.480;2022-10-13T14:16:26;11.40;;;4.80;;
40997;SDS011;26740;45.944;12.480;2022-10-13T14:18:54;12.35;;;5.68;;
40997;SDS011;26740;45.944;12.480;2022-10-13T14:21:20;9.52;;;5.05;;
40997;SDS011;26740;45.944;12.480;2022-10-13T14:23:46;12.23;;;5.60;;
40997;SDS011;26740;45.944;12.480;2022-10-13T14:26:12;16.50;;;5.50;;
40997;SDS011;26740;45.944;12.480;2022-10-13T14:28:39;10.18;;;5.60;;
40997;SDS011;26740;45.944;12.480;2022-10-13T14:31:06;8.43;;;5.30;;
40997;SDS011;26740;45.944;12.480;2022-10-13T14:33:33;6.68;;;4.55;;
40997;SDS011;26740;45.944;12.480;2022-10-13T14:36:02;10.48;;;5.30;;
40997;SDS011;26740;45.944;12.480;2022-10-13T14:38:30;9.90;;;5.18;;
40997;SDS011;26740;45.944;12.480;2022-10-13T14:40:59;16.63;;;5.90;;
40997;SDS011;26740;45.944;12.480;2022-10-13T14:45:51;11.75;;;5.28;;
40997;SDS011;26740;45.944;12.480;2022-10-13T14:48:17;9.73;;;5.60;;
40997;SDS011;26740;45.944;12.480;2022-10-13T14:50:43;15.38;;;5.90;;
40997;SDS011;26740;45.944;12.480;2022-10-13T14:53:08;12.32;;;5.80;;
40997;SDS011;26740;45.944;12.480;2022-10-13T14:58:05;13.30;;;5.82;;
40997;SDS011;26740;45.944;12.480;2022-10-13T15:00:31;9.40;;;5.95;;
40997;SDS011;26740;45.944;12.480;2022-10-13T15:02:56;9.40;;;6.13;;
40997;SDS011;26740;45.944;12.480;2022-10-13T15:05:22;16.50;;;6.68;;
40997;SDS011;26740;45.944;12.480;2022-10-13T15:07:47;13.57;;;5.53;;
40997;SDS011;26740;45.944;12.480;2022-10-13T15:10:13;9.45;;;6.13;;
40997;SDS011;26740;45.944;12.480;2022-10-13T15:12:39;13.50;;;6.53;;
40997;SDS011;26740;45.944;12.480;2022-10-13T15:15:04;11.43;;;7.03;;
40997;SDS011;26740;45.944;12.480;2022-10-13T15:17:30;10.95;;;5.95;;
40997;SDS011;26740;45.944;12.480;2022-10-13T15:19:57;13.02;;;7.03;;
40997;SDS011;26740;45.944;12.480;2022-10-13T15:22:23;10.40;;;6.32;;
40997;SDS011;26740;45.944;12.480;2022-10-13T15:24:48;11.82;;;6.70;;
40997;SDS011;26740;45.944;12.480;2022-10-13T15:27:14;10.35;;;6.40;;
40997;SDS011;26740;45.944;12.480;2022-10-13T15:29:40;12.32;;;6.95;;
40997;SDS011;26740;45.944;12.480;2022-10-13T15:32:07;9.05;;;5.85;;
40997;SDS011;26740;45.944;12.480;2022-10-13T15:34:37;10.52;;;5.85;;
40997;SDS011;26740;45.944;12.480;2022-10-13T15:37:04;7.88;;;5.13;;
40997;SDS011;26740;45.944;12.480;2022-10-13T15:39:30;9.82;;;6.13;;
40997;SDS011;26740;45.944;12.480;2022-10-13T15:41:56;12.23;;;6.63;;
40997;SDS011;26740;45.944;12.480;2022-10-13T15:44:25;10.48;;;6.30;;
40997;SDS011;26740;45.944;12.480;2022-10-13T15:46:51;13.30;;;6.38;;
40997;SDS011;26740;45.944;12.480;2022-10-13T15:51:47;13.35;;;6.70;;
40997;SDS011;26740;45.944;12.480;2022-10-13T15:54:13;14.25;;;6.72;;
40997;SDS011;26740;45.944;12.480;2022-10-13T15:56:39;17.33;;;6.13;;
40997;SDS011;26740;45.944;12.480;2022-10-13T15:59:05;8.00;;;6.13;;
40997;SDS011;26740;45.944;12.480;2022-10-13T16:01:31;11.38;;;6.40;;
40997;SDS011;26740;45.944;12.480;2022-10-13T16:03:57;12.52;;;6.97;;
40997;SDS011;26740;45.944;12.480;2022-10-13T16:06:23;16.23;;;7.53;;
40997;SDS011;26740;45.944;12.480;2022-10-13T16:08:50;13.77;;;7.78;;
40997;SDS011;26740;45.944;12.480;2022-10-13T16:11:17;13.15;;;8.68;;
40997;SDS011;26740;45.944;12.480;2022-10-13T16:13:46;15.05;;;7.38;;
40997;SDS011;26740;45.944;12.480;2022-10-13T16:16:14;16.35;;;6.57;;
40997;SDS011;26740;45.944;12.480;2022-10-13T16:18:40;15.40;;;7.45;;
40997;SDS011;26740;45.944;12.480;2022-10-13T16:21:06;11.48;;;7.43;;
40997;SDS011;26740;45.944;12.480;2022-10-13T16:23:37;20.17;;;8.40;;
40997;SDS011;26740;45.944;12.480;2022-10-13T16:26:03;13.23;;;7.85;;
40997;SDS011;26740;45.944;12.480;2022-10-13T16:28:30;13.70;;;8.30;;
40997;SDS011;26740;45.944;12.480;2022-10-13T16:30:55;16.83;;;9.00;;
40997;SDS011;26740;45.944;12.480;2022-10-13T16:33:21;10.80;;;8.43;;
40997;SDS011;26740;45.944;12.480;2022-10-13T16:35:47;12.88;;;8.45;;
40997;SDS011;26740;45.944;12.480;2022-10-13T16:38:13;13.00;;;8.25;;
40997;SDS011;26740;45.944;12.480;2022-10-13T16:40:38;15.73;;;8.18;;
40997;SDS011;26740;45.944;12.480;2022-10-13T16:43:04;11.60;;;8.75;;
40997;SDS011;26740;45.944;12.480;2022-10-13T16:45:31;15.43;;;9.20;;